Planada, California
Current Conditions -  °F | °C
As of 6:53 PM on Friday 24 Oct 2014 (Local Time) from KMCE Reporting Station
Clear Clear  
Wind Chill: 75°   Ceiling: Unl
Heat Index: 75°   Visibility: 10mi
Dew Point: 50°   Wind: 5mph
Humidity: 41%   Direction: 240°WSW
Pressure: 29.84"   Gusts: NA
Location:  37.29°N, 120.32°W
Report Text: KMCE 250153Z AUTO 24004KT 10SM CLR 24/10 A2984 RMK AO2 SLP104 T02390100
Loading
Personal Weather Stations






























Interactive Weather Map
Tropical Storm Tracking
New forecast layout! Learn more

10-Day Weather Forecast

Advertisements
Track Severe Weather on mobile